createdAt,value
2023-01-27T00:01:22.365Z,57.25
2023-01-27T00:03:50.518Z,54.47
2023-01-27T00:06:18.894Z,53.80
2023-01-27T00:08:47.319Z,45.20
2023-01-27T00:11:34.636Z,57.63
2023-01-27T00:14:02.781Z,48.45
2023-01-27T00:16:31.449Z,51.00
2023-01-27T00:18:59.716Z,37.85
2023-01-27T00:21:45.361Z,48.80
2023-01-27T00:24:31.601Z,40.60
2023-01-27T00:27:01.695Z,48.35
2023-01-27T00:29:29.877Z,49.92
2023-01-27T00:32:15.463Z,48.47
2023-01-27T00:34:46.100Z,46.90
2023-01-27T00:37:15.546Z,58.55
2023-01-27T00:39:46.882Z,42.90
2023-01-27T00:42:16.667Z,48.00
2023-01-27T00:47:33.657Z,39.33
2023-01-27T00:50:02.118Z,52.10
2023-01-27T00:52:30.506Z,42.13
2023-01-27T00:54:58.561Z,44.03
2023-01-27T00:57:30.838Z,52.83
2023-01-27T00:59:59.950Z,46.58
2023-01-27T01:02:28.553Z,53.50
2023-01-27T01:04:56.697Z,49.25
2023-01-27T01:07:25.280Z,54.63
2023-01-27T01:09:53.615Z,55.65
2023-01-27T01:12:21.987Z,46.63
2023-01-27T01:14:54.058Z,47.80
2023-01-27T01:17:22.436Z,47.00
2023-01-27T01:19:50.737Z,45.33
2023-01-27T01:22:19.173Z,38.25
2023-01-27T01:24:47.336Z,43.72
2023-01-27T01:27:15.773Z,39.47
2023-01-27T01:29:43.906Z,38.35
2023-01-27T01:32:13.654Z,39.17
2023-01-27T01:37:09.882Z,44.97
2023-01-27T01:39:38.078Z,61.58
2023-01-27T01:42:06.583Z,51.27
2023-01-27T01:44:34.703Z,50.03
2023-01-27T01:47:03.087Z,45.60
2023-01-27T01:49:36.455Z,39.42
2023-01-27T01:52:10.833Z,41.90
2023-01-27T01:54:44.348Z,39.65
2023-01-27T01:57:18.007Z,46.22
2023-01-27T01:59:50.992Z,38.10
2023-01-27T02:02:26.119Z,40.05
2023-01-27T02:05:01.956Z,43.63
2023-01-27T02:07:37.240Z,36.88
2023-01-27T02:10:05.902Z,42.05
2023-01-27T02:12:34.301Z,46.45
2023-01-27T02:15:02.524Z,40.15
2023-01-27T02:17:31.034Z,43.13
2023-01-27T02:20:08.842Z,36.95
2023-01-27T02:22:44.783Z,41.20
2023-01-27T02:25:21.161Z,41.17
2023-01-27T02:27:51.124Z,45.97
2023-01-27T02:30:20.057Z,50.70
2023-01-27T02:32:48.505Z,44.85
2023-01-27T02:35:31.970Z,52.00
2023-01-27T02:38:01.250Z,46.80
2023-01-27T02:40:31.972Z,46.97
2023-01-27T02:43:03.007Z,66.53
2023-01-27T02:45:31.542Z,47.28
2023-01-27T02:48:02.673Z,46.58
2023-01-27T02:50:31.137Z,45.92
2023-01-27T02:52:59.608Z,76.05
2023-01-27T02:55:27.836Z,45.60
2023-01-27T02:57:56.341Z,45.50
2023-01-27T03:00:26.877Z,40.78
2023-01-27T03:02:55.351Z,42.72
2023-01-27T03:05:23.504Z,46.92
2023-01-27T03:07:52.284Z,44.80
2023-01-27T03:10:20.764Z,45.72
2023-01-27T03:12:49.141Z,44.33
2023-01-27T03:15:34.657Z,55.63
2023-01-27T03:18:17.367Z,46.28
2023-01-27T03:20:47.672Z,46.08
2023-01-27T03:23:18.545Z,65.28
2023-01-27T03:25:49.189Z,52.33
2023-01-27T03:28:17.611Z,65.72
2023-01-27T03:31:40.813Z,58.10
2023-01-27T03:34:10.695Z,63.45
2023-01-27T03:36:56.129Z,37.78
2023-01-27T03:39:42.233Z,43.53
2023-01-27T03:42:28.010Z,40.88
2023-01-27T03:45:14.225Z,30.90
2023-01-27T03:47:42.620Z,36.72
2023-01-27T03:50:19.310Z,32.70
2023-01-27T03:53:03.344Z,30.00
2023-01-27T03:55:32.269Z,30.23
2023-01-27T03:58:18.173Z,28.73
2023-01-27T04:00:47.715Z,30.83
2023-01-27T04:03:33.215Z,29.13
2023-01-27T04:06:24.371Z,29.50
2023-01-27T04:08:52.905Z,32.08
2023-01-27T04:11:39.324Z,27.80
2023-01-27T04:14:08.628Z,29.05
2023-01-27T04:16:37.993Z,30.98
2023-01-27T04:19:07.745Z,33.05
2023-01-27T04:21:38.036Z,29.52
2023-01-27T04:24:08.869Z,30.58
2023-01-27T04:26:38.580Z,32.47
2023-01-27T04:29:07.540Z,27.23
2023-01-27T04:34:06.856Z,24.63
2023-01-27T04:36:35.792Z,28.50
2023-01-27T04:39:05.447Z,36.78
2023-01-27T04:41:33.843Z,34.28
2023-01-27T04:44:02.891Z,32.47
2023-01-27T04:46:31.480Z,37.70
2023-01-27T04:48:59.811Z,38.33
2023-01-27T04:51:28.637Z,33.83
2023-01-27T04:53:57.326Z,27.55
2023-01-27T04:56:32.020Z,24.90
2023-01-27T04:59:01.637Z,23.25
2023-01-27T05:01:31.037Z,13.82
2023-01-27T05:03:59.541Z,13.07
2023-01-27T05:06:28.762Z,10.15
2023-01-27T05:08:57.754Z,6.07
2023-01-27T05:13:55.559Z,8.98
2023-01-27T05:16:25.588Z,4.90
2023-01-27T05:18:54.735Z,6.07
2023-01-27T05:21:25.337Z,5.75
2023-01-27T05:23:53.501Z,7.13
2023-01-27T05:26:24.323Z,10.32
2023-01-27T05:28:55.666Z,7.00
2023-01-27T05:31:26.370Z,7.32
2023-01-27T05:33:56.173Z,7.57
2023-01-27T05:36:26.201Z,6.40
2023-01-27T05:38:55.260Z,6.40
2023-01-27T05:41:24.616Z,9.65
2023-01-27T05:43:56.466Z,7.00
2023-01-27T05:46:27.050Z,10.13
2023-01-27T05:48:56.770Z,7.53
2023-01-27T05:51:30.363Z,10.55
2023-01-27T05:53:58.956Z,11.93
2023-01-27T05:56:27.691Z,9.77
2023-01-27T05:58:58.417Z,23.48
2023-01-27T06:01:29.368Z,6.95
2023-01-27T06:03:57.746Z,9.40
2023-01-27T06:06:27.827Z,6.30
2023-01-27T06:08:55.960Z,10.02
2023-01-27T06:11:25.366Z,8.85
2023-01-27T06:13:57.135Z,11.75
2023-01-27T06:16:27.100Z,10.35
2023-01-27T06:18:55.246Z,5.57
2023-01-27T06:21:26.388Z,8.00
2023-01-27T06:23:54.550Z,13.40
2023-01-27T06:26:22.968Z,6.50
2023-01-27T06:28:51.178Z,6.03
2023-01-27T06:31:22.510Z,4.00
2023-01-27T06:33:52.904Z,9.45
2023-01-27T06:36:23.349Z,8.48
2023-01-27T06:38:52.319Z,6.38
2023-01-27T06:41:20.920Z,7.50
2023-01-27T06:43:49.374Z,8.88
2023-01-27T06:46:18.133Z,7.00
2023-01-27T06:48:49.016Z,5.97
2023-01-27T06:51:18.910Z,8.70
2023-01-27T06:53:47.005Z,11.40
2023-01-27T06:56:17.428Z,6.20
2023-01-27T06:58:48.006Z,8.90
2023-01-27T07:01:16.473Z,7.75
2023-01-27T07:03:45.226Z,10.05
2023-01-27T07:06:17.153Z,7.43
2023-01-27T07:08:47.529Z,15.35
2023-01-27T07:11:15.950Z,9.55
2023-01-27T07:13:47.047Z,8.02
2023-01-27T07:16:15.490Z,8.52
2023-01-27T07:18:46.585Z,12.35
2023-01-27T07:21:15.279Z,7.82
2023-01-27T07:23:43.576Z,6.23
2023-01-27T07:26:24.621Z,5.30
2023-01-27T07:28:54.000Z,7.88
2023-01-27T07:31:22.642Z,9.30
2023-01-27T07:33:50.900Z,7.50
2023-01-27T07:36:19.297Z,10.70
2023-01-27T07:38:50.864Z,9.80
2023-01-27T07:41:22.961Z,9.77
2023-01-27T07:43:52.459Z,11.15
2023-01-27T07:46:21.145Z,5.95
2023-01-27T07:48:49.263Z,7.63
2023-01-27T07:51:17.844Z,7.03
2023-01-27T07:53:45.955Z,8.40
2023-01-27T07:56:14.699Z,11.95
2023-01-27T07:58:44.572Z,11.93
2023-01-27T08:01:14.232Z,5.28
2023-01-27T08:06:13.771Z,10.35
2023-01-27T08:08:41.925Z,8.60
2023-01-27T08:11:13.480Z,10.43
2023-01-27T08:13:45.729Z,8.73
2023-01-27T08:16:15.791Z,9.63
2023-01-27T08:18:43.980Z,6.63
2023-01-27T08:21:14.015Z,4.75
2023-01-27T08:23:42.422Z,6.15
2023-01-27T08:26:10.937Z,7.78
2023-01-27T08:28:40.884Z,5.40
2023-01-27T08:31:14.253Z,6.38
2023-01-27T08:33:44.024Z,4.72
2023-01-27T08:36:14.664Z,4.20
2023-01-27T08:38:43.848Z,5.88
2023-01-27T08:43:42.567Z,7.40
2023-01-27T08:46:13.002Z,5.07
2023-01-27T08:48:42.071Z,6.22
2023-01-27T08:51:13.300Z,5.22
2023-01-27T08:53:41.533Z,3.15
2023-01-27T08:56:15.525Z,4.30
2023-01-27T08:58:48.485Z,4.40
2023-01-27T09:01:21.675Z,8.98
2023-01-27T09:03:50.335Z,2.75
2023-01-27T09:06:19.299Z,6.32
2023-01-27T09:09:11.214Z,3.17
2023-01-27T09:11:42.877Z,5.15
2023-01-27T09:14:11.942Z,4.68
2023-01-27T09:16:44.836Z,4.65
2023-01-27T09:19:13.607Z,4.15
2023-01-27T09:21:42.167Z,3.60
2023-01-27T09:24:11.510Z,7.20
2023-01-27T09:26:41.007Z,5.63
2023-01-27T09:29:09.124Z,6.97
2023-01-27T09:31:37.649Z,5.60
2023-01-27T09:34:07.215Z,7.68
2023-01-27T09:36:41.841Z,7.57
2023-01-27T09:39:10.474Z,4.00
2023-01-27T09:41:56.814Z,7.97
2023-01-27T09:44:44.159Z,2.80
2023-01-27T09:47:39.070Z,5.88
2023-01-27T09:50:37.099Z,3.13
2023-01-27T09:54:04.242Z,2.70
2023-01-27T09:56:51.617Z,2.45
2023-01-27T09:59:32.608Z,6.45
2023-01-27T10:02:12.151Z,5.82
2023-01-27T10:05:12.966Z,9.00
2023-01-27T10:08:01.330Z,5.05
2023-01-27T10:10:45.291Z,5.10
2023-01-27T10:13:22.843Z,9.32
2023-01-27T10:16:05.140Z,2.97
2023-01-27T10:18:51.920Z,4.88
2023-01-27T10:21:29.893Z,6.35
2023-01-27T10:24:09.102Z,3.42
2023-01-27T10:26:44.602Z,2.65
2023-01-27T10:29:22.634Z,10.75
2023-01-27T10:31:58.040Z,6.95
2023-01-27T10:34:31.703Z,3.72
2023-01-27T10:37:13.777Z,4.20
2023-01-27T10:39:49.025Z,5.78
2023-01-27T10:42:30.118Z,3.03
2023-01-27T10:45:11.864Z,2.00
2023-01-27T10:47:52.825Z,2.60
2023-01-27T10:50:24.679Z,4.60
2023-01-27T10:52:59.069Z,4.90
2023-01-27T10:55:37.667Z,4.47
2023-01-27T10:58:14.421Z,5.45
2023-01-27T11:03:41.529Z,3.08
2023-01-27T11:06:16.347Z,1.73
2023-01-27T11:08:49.318Z,4.57
2023-01-27T11:11:38.402Z,5.38
2023-01-27T11:16:48.164Z,2.22
2023-01-27T11:19:28.812Z,6.30
2023-01-27T11:22:07.685Z,4.43
2023-01-27T11:24:47.142Z,3.78
2023-01-27T11:27:37.849Z,4.30
2023-01-27T11:30:16.946Z,3.53
2023-01-27T11:32:55.712Z,3.75
2023-01-27T11:35:25.112Z,3.60
2023-01-27T11:38:00.669Z,1.48
2023-01-27T11:40:39.047Z,5.30
2023-01-27T11:43:08.019Z,2.40
2023-01-27T11:45:39.061Z,1.77
2023-01-27T11:48:12.589Z,3.78
2023-01-27T11:50:46.663Z,4.05
2023-01-27T11:53:21.704Z,5.82
2023-01-27T11:55:54.418Z,1.70
2023-01-27T11:58:26.926Z,4.82
2023-01-27T12:01:00.917Z,3.15
2023-01-27T12:03:43.379Z,4.15
2023-01-27T12:06:16.834Z,2.45
2023-01-27T12:08:47.183Z,5.85
2023-01-27T12:11:20.322Z,3.47
2023-01-27T12:13:54.370Z,5.90
2023-01-27T12:16:28.527Z,5.88
2023-01-27T12:19:02.867Z,6.97
2023-01-27T12:21:46.926Z,4.85
2023-01-27T12:24:25.968Z,3.20
2023-01-27T12:26:56.866Z,2.60
2023-01-27T12:29:29.231Z,2.65
2023-01-27T12:32:01.748Z,2.95
2023-01-27T12:34:34.674Z,3.08
2023-01-27T12:37:07.489Z,3.90
2023-01-27T12:39:44.610Z,3.25
2023-01-27T12:42:36.315Z,2.15
2023-01-27T12:45:23.046Z,3.72
2023-01-27T12:48:20.977Z,3.67
2023-01-27T12:50:58.161Z,2.88
2023-01-27T12:53:28.248Z,2.75
2023-01-27T12:56:00.755Z,3.83
2023-01-27T12:58:32.502Z,5.40
2023-01-27T13:01:02.968Z,4.90
2023-01-27T13:03:39.661Z,6.43
2023-01-27T13:06:08.547Z,4.90
2023-01-27T13:08:41.790Z,2.20
2023-01-27T13:11:10.137Z,4.53
2023-01-27T13:13:39.017Z,8.82
2023-01-27T13:16:26.087Z,7.35
2023-01-27T13:18:58.483Z,5.38
2023-01-27T13:21:30.889Z,3.58
2023-01-27T13:24:03.148Z,8.80
2023-01-27T13:26:33.932Z,2.53
2023-01-27T13:29:11.924Z,7.10
2023-01-27T13:31:45.828Z,4.45
2023-01-27T13:34:25.229Z,3.92
2023-01-27T13:36:58.426Z,4.00
2023-01-27T13:39:44.815Z,4.70
2023-01-27T13:42:20.074Z,5.95
2023-01-27T13:44:52.299Z,3.03
2023-01-27T13:47:24.765Z,4.22
2023-01-27T13:49:59.151Z,3.67
2023-01-27T13:52:27.623Z,4.53
2023-01-27T13:54:56.591Z,4.28
2023-01-27T13:57:42.109Z,19.00
2023-01-27T14:00:20.698Z,5.63
2023-01-27T14:03:16.402Z,3.88
2023-01-27T14:06:05.309Z,1.77
2023-01-27T14:08:54.319Z,33.72
2023-01-27T14:11:32.064Z,4.10
2023-01-27T14:14:22.948Z,36.85
2023-01-27T14:17:04.398Z,32.03
2023-01-27T14:19:41.198Z,6.80
2023-01-27T14:22:18.893Z,6.60
2023-01-27T14:24:53.991Z,4.95
2023-01-27T14:27:27.799Z,6.57
2023-01-27T14:30:07.473Z,5.50
2023-01-27T14:32:40.724Z,6.07
2023-01-27T14:35:27.127Z,7.18
2023-01-27T14:38:09.876Z,5.10
2023-01-27T14:40:44.251Z,5.00
2023-01-27T14:43:21.625Z,3.45
2023-01-27T14:45:57.130Z,3.22
2023-01-27T14:48:42.875Z,5.80
2023-01-27T14:51:22.405Z,2.65
2023-01-27T14:54:06.298Z,3.95
2023-01-27T14:56:45.850Z,4.82
2023-01-27T14:59:26.989Z,5.32
2023-01-27T15:02:02.814Z,14.57
2023-01-27T15:04:38.499Z,12.50
2023-01-27T15:07:17.753Z,13.48
2023-01-27T15:10:02.975Z,6.43
2023-01-27T15:12:54.192Z,2.85
2023-01-27T15:16:02.370Z,12.55
2023-01-27T15:19:09.932Z,9.13
2023-01-27T15:22:11.445Z,68.78
2023-01-27T15:25:18.327Z,7.05
2023-01-27T15:27:49.764Z,5.35
2023-01-27T15:30:24.350Z,8.82
2023-01-27T15:32:53.189Z,9.00
2023-01-27T15:35:41.679Z,4.83
2023-01-27T15:38:19.941Z,5.40
2023-01-27T15:41:04.889Z,3.67
2023-01-27T15:43:33.721Z,3.03
2023-01-27T15:46:21.331Z,7.23
2023-01-27T15:48:49.941Z,1.65
2023-01-27T15:51:21.475Z,4.30
2023-01-27T15:53:53.831Z,7.80
2023-01-27T15:56:41.303Z,8.10
2023-01-27T15:59:15.994Z,4.05
2023-01-27T16:01:44.435Z,6.40
2023-01-27T16:04:19.323Z,1.65
2023-01-27T16:06:51.931Z,7.20
2023-01-27T16:09:34.223Z,8.15
2023-01-27T16:12:06.641Z,14.55
2023-01-27T16:14:41.101Z,17.85
2023-01-27T16:17:32.939Z,8.25
2023-01-27T16:20:21.026Z,7.82
2023-01-27T16:22:55.115Z,10.68
2023-01-27T16:25:30.245Z,8.18
2023-01-27T16:28:07.502Z,9.93
2023-01-27T16:30:44.653Z,6.55
2023-01-27T16:33:20.049Z,5.03
2023-01-27T16:35:54.239Z,5.47
2023-01-27T16:38:27.123Z,7.38
2023-01-27T16:40:58.159Z,5.88
2023-01-27T16:43:33.199Z,14.25
2023-01-27T16:46:02.774Z,7.50
2023-01-27T16:48:36.034Z,43.10
2023-01-27T16:51:14.890Z,92.60
2023-01-27T16:53:49.087Z,16.85
2023-01-27T16:56:24.190Z,29.75
2023-01-27T16:58:58.118Z,14.20
2023-01-27T17:01:30.852Z,6.78
2023-01-27T17:04:14.030Z,9.52
2023-01-27T17:06:48.346Z,8.38
2023-01-27T17:09:24.584Z,7.43
2023-01-27T17:11:54.292Z,10.40
2023-01-27T17:14:31.944Z,8.77
2023-01-27T17:17:02.773Z,10.82
2023-01-27T17:19:33.844Z,23.55
2023-01-27T17:22:03.686Z,7.07
2023-01-27T17:24:34.135Z,9.57
2023-01-27T17:27:05.725Z,28.73
2023-01-27T17:29:40.094Z,29.38
2023-01-27T17:32:20.873Z,34.38
2023-01-27T17:34:50.665Z,11.70
2023-01-27T17:37:21.342Z,12.50
2023-01-27T17:39:55.460Z,10.90
2023-01-27T17:42:26.689Z,14.23
2023-01-27T17:44:56.375Z,11.50
2023-01-27T17:47:25.176Z,6.22
2023-01-27T17:49:53.316Z,7.83
2023-01-27T17:52:25.034Z,6.27
2023-01-27T17:54:53.450Z,8.32
2023-01-27T17:57:24.058Z,5.40
2023-01-27T18:00:01.926Z,6.93
2023-01-27T18:02:34.545Z,81.90
2023-01-27T18:05:05.984Z,22.63
2023-01-27T18:07:35.715Z,7.20
2023-01-27T18:12:49.727Z,8.32
2023-01-27T18:15:42.668Z,3.50
2023-01-27T18:18:23.879Z,12.27
2023-01-27T18:21:04.096Z,13.88
2023-01-27T18:23:35.567Z,4.05
2023-01-27T18:26:07.679Z,18.10
2023-01-27T18:28:39.638Z,11.65
2023-01-27T18:31:18.503Z,22.05
2023-01-27T18:33:47.645Z,13.13
2023-01-27T18:36:24.628Z,8.18
2023-01-27T18:38:53.372Z,8.38
2023-01-27T18:41:27.319Z,15.30
2023-01-27T18:43:56.343Z,9.30
2023-01-27T18:46:28.112Z,8.05
2023-01-27T18:48:59.881Z,7.53
2023-01-27T18:51:28.162Z,6.18
2023-01-27T18:53:56.547Z,13.00
2023-01-27T18:56:24.724Z,6.47
2023-01-27T18:58:54.176Z,5.43
2023-01-27T19:01:24.674Z,5.22
2023-01-27T19:03:58.504Z,3.83
2023-01-27T19:06:27.409Z,5.70
2023-01-27T19:08:55.850Z,2.33
2023-01-27T19:11:24.086Z,7.32
2023-01-27T19:13:52.542Z,11.33
2023-01-27T19:16:20.766Z,7.68
2023-01-27T19:18:50.178Z,3.70
2023-01-27T19:21:19.722Z,4.32
2023-01-27T19:23:49.709Z,10.32
2023-01-27T19:26:20.259Z,6.70
2023-01-27T19:28:51.596Z,5.40
2023-01-27T19:31:19.952Z,5.95
2023-01-27T19:33:48.589Z,4.57
2023-01-27T19:36:23.746Z,7.80
2023-01-27T19:38:56.756Z,6.35
2023-01-27T19:41:25.252Z,8.68
2023-01-27T19:43:53.969Z,11.32
2023-01-27T19:46:23.648Z,9.75
2023-01-27T19:48:52.903Z,11.13
2023-01-27T19:51:22.489Z,12.32
2023-01-27T19:53:51.357Z,6.30
2023-01-27T19:56:21.917Z,6.47
2023-01-27T19:58:53.566Z,4.05
2023-01-27T20:01:26.793Z,7.53
2023-01-27T20:03:56.169Z,20.67
2023-01-27T20:06:27.928Z,12.38
2023-01-27T20:08:59.224Z,8.68
2023-01-27T20:11:36.403Z,12.65
2023-01-27T20:14:07.638Z,14.50
2023-01-27T20:16:37.189Z,18.48
2023-01-27T20:19:05.902Z,6.78
2023-01-27T20:21:36.098Z,10.27
2023-01-27T20:24:04.987Z,6.72
2023-01-27T20:26:33.273Z,12.18
2023-01-27T20:29:02.260Z,7.43
2023-01-27T20:31:30.735Z,5.90
2023-01-27T20:34:00.750Z,9.77
2023-01-27T20:36:29.107Z,6.72
2023-01-27T20:38:59.267Z,10.30
2023-01-27T20:41:27.506Z,9.00
2023-01-27T20:43:56.951Z,7.83
2023-01-27T20:46:25.744Z,9.30
2023-01-27T20:48:56.316Z,11.45
2023-01-27T20:51:24.477Z,6.05
2023-01-27T20:53:53.591Z,10.63
2023-01-27T20:56:24.550Z,4.97
2023-01-27T20:58:54.449Z,4.53
2023-01-27T21:01:24.301Z,3.83
2023-01-27T21:03:52.792Z,6.07
2023-01-27T21:06:21.981Z,4.78
2023-01-27T21:11:20.637Z,4.90
2023-01-27T21:13:52.427Z,6.68
2023-01-27T21:16:20.613Z,4.40
2023-01-27T21:18:49.350Z,3.33
2023-01-27T21:21:24.244Z,6.33
2023-01-27T21:23:53.006Z,5.68
2023-01-27T21:26:21.517Z,4.77
2023-01-27T21:28:51.939Z,6.15
2023-01-27T21:31:22.170Z,4.78
2023-01-27T21:33:51.415Z,3.45
2023-01-27T21:36:20.580Z,5.75
2023-01-27T21:41:40.509Z,5.90
2023-01-27T21:44:35.476Z,6.93
2023-01-27T21:47:04.216Z,6.55
2023-01-27T21:49:56.262Z,7.20
2023-01-27T21:52:25.901Z,9.02
2023-01-27T21:54:54.399Z,6.47
2023-01-27T21:57:22.697Z,8.20
2023-01-27T21:59:52.839Z,5.93
2023-01-27T22:02:23.553Z,6.18
2023-01-27T22:04:52.139Z,9.45
2023-01-27T22:07:20.361Z,5.85
2023-01-27T22:09:49.003Z,5.00
2023-01-27T22:12:17.569Z,7.38
2023-01-27T22:14:46.240Z,4.00
2023-01-27T22:17:17.367Z,6.90
2023-01-27T22:19:47.292Z,7.47
2023-01-27T22:22:15.410Z,9.13
2023-01-27T22:24:44.240Z,4.23
2023-01-27T22:27:12.358Z,6.25
2023-01-27T22:29:41.037Z,5.57
2023-01-27T22:32:09.389Z,7.07
2023-01-27T22:34:39.590Z,8.23
2023-01-27T22:37:08.099Z,6.00
2023-01-27T22:39:38.007Z,7.43
2023-01-27T22:44:34.682Z,5.82
2023-01-27T22:47:02.905Z,5.88
2023-01-27T22:49:31.426Z,5.97
2023-01-27T22:52:01.613Z,5.63
2023-01-27T22:54:30.015Z,8.80
2023-01-27T22:57:00.787Z,6.15
2023-01-27T22:59:29.820Z,4.95
2023-01-27T23:01:57.922Z,5.73
2023-01-27T23:04:26.534Z,6.38
2023-01-27T23:06:54.971Z,6.10
2023-01-27T23:09:24.774Z,6.53
2023-01-27T23:11:53.519Z,4.03
2023-01-27T23:14:21.949Z,7.30
2023-01-27T23:16:52.887Z,6.50
2023-01-27T23:19:24.598Z,3.88
2023-01-27T23:21:53.301Z,5.80
2023-01-27T23:24:21.927Z,3.15
2023-01-27T23:26:51.797Z,8.43
2023-01-27T23:29:25.003Z,9.90
2023-01-27T23:31:54.136Z,9.57
2023-01-27T23:34:23.012Z,7.75
2023-01-27T23:36:51.371Z,4.57
2023-01-27T23:39:20.035Z,4.78
2023-01-27T23:41:48.543Z,4.40
2023-01-27T23:44:19.197Z,7.55
2023-01-27T23:46:47.399Z,6.88
2023-01-27T23:49:15.813Z,6.97
2023-01-27T23:51:45.270Z,6.40
2023-01-27T23:54:14.529Z,9.75
2023-01-27T23:56:42.741Z,6.47
2023-01-27T23:59:13.199Z,7.50
